Time;durP1;ratioP1;P1;durP2;ratioP2;P2;SDS_P1;SDS_P2;PMS_P1;PMS_P2;Temp;Humidity;BMP_temperature;BMP_pressure;BME280_temperature;BME280_humidity;BME280_pressure;Samples;Min_cycle;Max_cycle;Signal;HPM_P1;HPM_P2
2022/05/20 00:03:47;;;;;;;5.90;2.20;;;;;;;13.82;41.76;99751.39;437851;1273;144696;-52
2022/05/20 00:13:53;;;;;;;3.20;1.70;;;;;;;13.76;41.98;99753.63;429608;1273;141412;-55
2022/05/20 00:23:59;;;;;;;4.00;1.70;;;;;;;13.61;42.23;99749.77;430896;1273;140912;-50
2022/05/20 00:34:05;;;;;;;3.80;1.80;;;;;;;13.45;42.33;99746.16;431682;1273;140351;-48
2022/05/20 00:44:11;;;;;;;2.20;1.40;;;;;;;13.28;42.55;99731.54;431072;1273;140431;-49
2022/05/20 00:54:21;;;;;;;2.10;1.70;;;;;;;13.16;42.85;99729.41;431119;1274;146180;-48
2022/05/20 01:04:27;;;;;;;3.10;1.50;;;;;;;13.11;43.00;99711.38;431077;1274;141395;-47
2022/05/20 01:14:33;;;;;;;3.10;1.30;;;;;;;13.05;43.37;99723.69;430564;1273;142267;-48
2022/05/20 01:24:39;;;;;;;4.70;1.90;;;;;;;12.94;43.69;99731.52;430774;1272;140953;-51
2022/05/20 01:34:45;;;;;;;2.90;1.50;;;;;;;12.79;44.13;99725.75;430080;1271;140461;-48
2022/05/20 01:44:57;;;;;;;2.00;1.30;;;;;;;12.66;44.38;99712.96;430576;1273;140670;-49
2022/05/20 01:55:09;;;;;;;5.40;1.90;;;;;;;12.60;44.62;99717.60;430606;1274;140385;-50
2022/05/20 02:05:20;;;;;;;5.40;1.80;;;;;;;12.45;45.25;99716.04;430367;1273;141736;-52
2022/05/20 02:15:34;;;;;;;5.00;1.70;;;;;;;12.32;45.63;99706.17;430836;1273;141205;-50
2022/05/20 02:25:46;;;;;;;5.20;1.50;;;;;;;12.25;46.43;99695.81;429666;1274;142316;-52
2022/05/20 02:35:52;;;;;;;5.20;1.60;;;;;;;12.16;47.10;99693.02;430675;1273;140789;-51
2022/05/20 02:45:58;;;;;;;6.20;2.40;;;;;;;12.07;47.60;99699.27;430016;1273;141297;-49
2022/05/20 02:56:04;;;;;;;3.60;1.30;;;;;;;11.98;48.28;99696.20;430271;1270;144909;-50
2022/05/20 03:06:10;;;;;;;8.80;2.60;;;;;;;11.88;48.72;99680.70;430743;1273;284634;-51
2022/05/20 03:16:16;;;;;;;12.80;3.30;;;;;;;11.89;48.86;99667.66;430321;1274;141081;-51
2022/05/20 03:26:22;;;;;;;4.60;1.70;;;;;;;11.97;49.61;99675.02;431502;1273;144695;-51
2022/05/20 03:36:28;;;;;;;4.90;1.70;;;;;;;12.21;49.67;99672.40;431915;1273;142069;-53
2022/05/20 03:46:39;;;;;;;7.00;2.70;;;;;;;12.66;49.18;99675.56;430834;1273;141121;-49
2022/05/20 03:56:45;;;;;;;5.00;2.00;;;;;;;13.35;48.23;99669.20;433528;1273;146806;-49
2022/05/20 04:06:51;;;;;;;6.10;2.40;;;;;;;14.57;46.74;99660.52;430509;1273;140464;-49
2022/05/20 04:16:57;;;;;;;4.90;1.40;;;;;;;18.23;42.26;99667.62;430108;1273;141153;-52
2022/05/20 04:27:04;;;;;;;9.80;1.80;;;;;;;18.55;39.97;99672.86;430417;1273;145086;-50
2022/05/20 04:37:09;;;;;;;3.00;1.30;;;;;;;22.52;37.35;99674.20;431060;1273;141732;-51
2022/05/20 04:47:19;;;;;;;3.60;1.40;;;;;;;29.18;30.60;99653.75;429779;1272;142211;-49
2022/05/20 04:57:30;;;;;;;2.50;1.30;;;;;;;31.25;26.42;99657.57;430449;1273;141549;-52
2022/05/20 05:07:40;;;;;;;3.90;1.80;;;;;;;28.20;26.25;99661.83;436181;1273;162612;-54
2022/05/20 05:28:10;;;;;;;1.60;1.20;;;;;;;24.90;28.02;99662.59;436777;1273;141978;-51
2022/05/20 05:38:15;;;;;;;4.90;2.10;;;;;;;23.19;30.09;99669.10;429601;1273;141313;-48
2022/05/20 05:48:21;;;;;;;13.40;3.70;;;;;;;21.88;31.89;99687.20;438239;1273;140648;-53
2022/05/20 05:58:28;;;;;;;8.30;2.40;;;;;;;21.35;33.24;99696.61;447104;1272;141220;-54
2022/05/20 06:08:33;;;;;;;18.50;2.80;;;;;;;20.67;34.66;99696.81;438408;1270;144828;-53
2022/05/20 06:18:39;;;;;;;6.60;2.30;;;;;;;20.33;35.76;99691.83;433842;1272;140828;-51
2022/05/20 06:28:45;;;;;;;10.00;2.60;;;;;;;20.82;36.08;99685.25;432504;1273;141891;-52
2022/05/20 06:49:15;;;;;;;9.60;2.90;;;;;;;21.38;36.29;99691.14;444931;1273;141834;-52
2022/05/20 06:59:21;;;;;;;12.20;3.50;;;;;;;21.25;36.95;99686.49;438069;1272;144296;-54
2022/05/20 07:09:26;;;;;;;7.40;2.40;;;;;;;21.48;37.27;99694.11;446229;1271;141271;-52
2022/05/20 07:19:33;;;;;;;5.20;2.20;;;;;;;21.45;37.50;99695.78;441452;1271;141918;-52
2022/05/20 07:29:39;;;;;;;10.70;2.80;;;;;;;22.55;37.39;99695.92;447132;1273;142281;-54
2022/05/20 07:39:45;;;;;;;21.10;4.00;;;;;;;23.87;35.86;99689.11;437774;1272;144083;-53
2022/05/20 07:49:51;;;;;;;6.60;2.60;;;;;;;23.64;36.07;99683.39;431689;1273;142748;-54
2022/05/20 07:59:57;;;;;;;8.30;2.90;;;;;;;23.02;37.12;99688.01;447256;1272;141305;-54
2022/05/20 08:10:05;;;;;;;13.70;3.60;;;;;;;22.45;38.24;99677.13;443180;1271;141521;-59
2022/05/20 08:20:16;;;;;;;7.20;2.60;;;;;;;22.74;38.96;99687.96;435506;1273;142197;-53
2022/05/20 08:30:25;;;;;;;7.10;3.20;;;;;;;24.43;37.96;99685.03;438376;1270;141090;-50
2022/05/20 08:40:38;;;;;;;5.70;2.20;;;;;;;26.02;36.58;99681.09;435743;1273;141087;-52
2022/05/20 08:50:47;;;;;;;5.40;2.80;;;;;;;27.56;35.20;99688.61;441694;1272;142146;-52
2022/05/20 09:00:53;;;;;;;4.50;2.40;;;;;;;27.88;34.35;99681.25;439213;1271;140547;-54
2022/05/20 09:11:01;;;;;;;3.60;2.10;;;;;;;27.55;34.45;99677.79;446301;1273;141001;-53
2022/05/20 09:21:08;;;;;;;5.10;1.90;;;;;;;27.23;34.90;99671.41;434805;1273;141468;-51
2022/05/20 09:31:22;;;;;;;12.00;3.20;;;;;;;26.99;35.06;99660.20;430102;1273;140846;-51
2022/05/20 09:41:28;;;;;;;11.90;2.30;;;;;;;26.73;35.51;99653.16;430818;1273;140997;-52
2022/05/20 09:51:42;;;;;;;3.70;1.40;;;;;;;26.51;35.65;99650.52;430166;1273;141475;-53
2022/05/20 10:01:57;;;;;;;7.20;2.10;;;;;;;26.51;35.74;99646.87;432135;1273;140957;-49
2022/05/20 10:12:09;;;;;;;4.60;2.40;;;;;;;26.29;36.11;99649.05;431394;1273;146204;-51
2022/05/20 10:22:20;;;;;;;6.10;3.10;;;;;;;26.06;36.99;99635.77;430741;1273;140357;-51
2022/05/20 10:32:35;;;;;;;7.10;2.10;;;;;;;26.23;37.09;99627.23;430574;1273;144186;-50
2022/05/20 10:43:00;;;;;;;4.40;1.80;;;;;;;26.29;37.33;99613.98;430715;1273;143225;-53
2022/05/20 10:53:16;;;;;;;10.20;3.00;;;;;;;26.61;37.08;99611.27;430409;1273;140787;-52
2022/05/20 11:03:42;;;;;;;5.70;1.90;;;;;;;26.93;36.72;99604.28;430284;1273;141119;-56
2022/05/20 11:14:03;;;;;;;6.90;1.90;;;;;;;27.10;36.40;99594.20;430387;1273;142451;-49
2022/05/20 11:24:27;;;;;;;6.50;1.40;;;;;;;27.33;35.64;99584.58;431507;1273;140993;-52
2022/05/20 11:35:04;;;;;;;8.00;1.70;;;;;;;27.46;35.13;99570.60;431759;1273;141450;-53
2022/05/20 11:45:20;;;;;;;7.10;1.40;;;;;;;27.39;34.62;99563.84;430794;1273;142142;-51
2022/05/20 11:55:32;;;;;;;7.80;1.80;;;;;;;27.37;34.20;99557.20;430826;1273;140489;-50
2022/05/20 12:05:41;;;;;;;5.90;1.40;;;;;;;27.30;33.78;99548.09;431030;1273;144802;-53
2022/05/20 12:15:50;;;;;;;10.20;2.00;;;;;;;27.21;33.76;99546.95;430255;1273;141347;-48
2022/05/20 12:26:26;;;;;;;5.90;2.20;;;;;;;26.97;33.26;99550.43;430454;1273;142113;-53
2022/05/20 12:36:41;;;;;;;4.20;1.40;;;;;;;27.20;33.02;99551.47;431309;1273;141146;-52
2022/05/20 12:47:00;;;;;;;3.00;1.10;;;;;;;27.11;32.17;99536.14;430774;1273;142595;-50
2022/05/20 12:57:15;;;;;;;3.90;1.80;;;;;;;27.12;32.45;99528.84;430248;1272;141562;-53
2022/05/20 13:07:21;;;;;;;6.10;2.50;;;;;;;27.26;32.54;99527.28;430191;1273;141303;-50
2022/05/20 13:17:27;;;;;;;9.70;2.30;;;;;;;27.17;31.67;99513.95;430311;1273;143477;-51
2022/05/20 13:27:33;;;;;;;5.00;1.50;;;;;;;27.11;31.07;99498.87;430391;1273;144515;-52
2022/05/20 13:37:43;;;;;;;2.30;1.20;;;;;;;26.94;31.72;99497.98;429076;1273;140170;-50
2022/05/20 13:58:13;;;;;;;2.00;1.20;;;;;;;26.63;30.48;99473.59;430533;1273;141859;-53
2022/05/20 14:08:22;;;;;;;15.60;3.80;;;;;;;26.37;29.92;99466.63;429435;1273;143147;-52
2022/05/20 14:18:32;;;;;;;4.80;1.20;;;;;;;26.16;29.79;99456.75;430778;1273;141707;-52
2022/05/20 14:28:57;;;;;;;5.70;2.20;;;;;;;25.90;30.15;99447.25;434434;1273;142138;-54
2022/05/20 14:39:04;;;;;;;2.70;1.10;;;;;;;25.98;30.49;99444.09;446925;1273;143306;-53
2022/05/20 14:49:11;;;;;;;4.20;1.60;;;;;;;25.90;30.51;99430.83;447170;1272;141705;-55
2022/05/20 14:59:30;;;;;;;;;;;;;;;25.89;31.14;99425.52;432925;1273;140899;-52
2022/05/20 15:09:37;;;;;;;5.10;1.70;;;;;;;25.79;31.51;99430.46;430228;1273;238972;-49
2022/05/20 15:19:43;;;;;;;5.10;1.70;;;;;;;25.85;32.10;99415.05;430289;1273;143538;-51
2022/05/20 15:29:49;;;;;;;4.80;1.50;;;;;;;25.88;32.32;99395.82;431155;1273;141536;-53
2022/05/20 15:40:02;;;;;;;3.90;2.00;;;;;;;25.91;32.16;99380.97;430539;1273;141081;-50
2022/05/20 15:50:10;;;;;;;1.80;1.50;;;;;;;25.79;31.89;99378.05;429502;1273;140702;-51
2022/05/20 16:00:18;;;;;;;3.40;1.60;;;;;;;25.67;31.88;99362.23;435243;1272;141020;-52
2022/05/20 16:10:26;;;;;;;3.50;1.80;;;;;;;25.56;32.29;99363.86;431619;1273;142272;-53
2022/05/20 16:20:43;;;;;;;5.00;1.60;;;;;;;25.48;32.60;99356.52;435344;1273;141835;-56
2022/05/20 16:30:49;;;;;;;2.90;1.70;;;;;;;25.49;32.75;99348.64;439480;1272;141335;-54
2022/05/20 16:40:55;;;;;;;4.00;1.50;;;;;;;25.44;32.91;99337.00;446393;1273;142082;-55
2022/05/20 16:51:06;;;;;;;4.60;2.00;;;;;;;25.31;33.13;99333.27;439684;1273;142812;-49
2022/05/20 17:11:35;;;;;;;10.00;3.30;;;;;;;24.90;34.23;99333.06;430353;1273;141309;-53
2022/05/20 17:32:08;;;;;;;11.50;2.00;;;;;;;24.01;35.36;99311.30;429157;1273;141100;-48
2022/05/20 17:42:14;;;;;;;7.60;2.20;;;;;;;23.57;35.78;99304.05;431375;1273;142513;-53
2022/05/20 17:52:21;;;;;;;8.00;1.90;;;;;;;23.21;35.85;99296.85;430699;1273;143824;-52
2022/05/20 18:02:28;;;;;;;7.00;2.50;;;;;;;22.85;36.13;99292.02;429360;1273;141683;-48
2022/05/20 18:12:35;;;;;;;8.70;2.20;;;;;;;22.55;36.56;99278.45;431595;1273;142614;-53
2022/05/20 18:22:48;;;;;;;13.20;3.80;;;;;;;22.12;37.52;99276.36;429905;1273;142871;-52
2022/05/20 18:32:54;;;;;;;7.80;3.30;;;;;;;21.70;38.85;99268.91;430213;1273;142393;-49
2022/05/20 18:43:01;;;;;;;8.40;2.80;;;;;;;21.31;39.30;99261.63;430736;1274;142506;-54
2022/05/20 18:53:07;;;;;;;13.60;3.10;;;;;;;21.00;39.68;99250.36;430106;1274;142325;-54
2022/05/20 19:13:36;;;;;;;5.40;2.60;;;;;;;20.37;40.68;99231.04;435392;1272;163326;-48
2022/05/20 19:23:43;;;;;;;7.10;2.80;;;;;;;19.95;41.33;99205.06;447254;1272;140506;-53
2022/05/20 19:33:48;;;;;;;4.40;3.10;;;;;;;19.52;42.10;99190.10;442280;1273;140848;-56
2022/05/20 19:43:55;;;;;;;6.30;3.50;;;;;;;19.18;43.71;99165.66;430647;1274;144110;-56
2022/05/20 19:54:01;;;;;;;12.80;4.30;;;;;;;18.85;44.65;99142.89;434055;1272;142140;-53
2022/05/20 20:04:07;;;;;;;6.70;3.40;;;;;;;18.53;45.87;99144.47;430632;1273;140787;-48
2022/05/20 20:14:13;;;;;;;10.10;6.40;;;;;;;18.23;46.46;99117.07;436464;1273;140890;-50
2022/05/20 20:35:02;;;;;;;9.60;4.70;;;;;;;17.80;48.43;99078.14;434838;1273;141993;-49
2022/05/20 20:45:10;;;;;;;13.80;5.00;;;;;;;17.60;49.40;99082.90;436956;1272;141915;-47
2022/05/20 20:55:16;;;;;;;;;;;;;;;17.37;50.16;99084.84;431034;1273;198893;-48
2022/05/20 21:05:43;;;;;;;11.10;9.90;;;;;;;17.13;50.70;99080.84;432756;1273;126809;-50
2022/05/20 21:15:49;;;;;;;14.00;7.30;;;;;;;17.01;51.44;99080.44;430874;1272;140460;-53
2022/05/20 21:25:56;;;;;;;10.70;6.50;;;;;;;17.06;51.56;99027.80;430935;1273;141033;-53
2022/05/20 21:36:02;;;;;;;10.10;5.30;;;;;;;17.04;51.80;99012.62;431063;1271;142008;-53
2022/05/20 21:56:34;;;;;;;9.30;6.20;;;;;;;17.20;52.18;98951.58;431593;1273;143146;-51
2022/05/20 22:17:06;;;;;;;9.00;6.20;;;;;;;17.48;51.69;98922.89;429391;1273;145091;-51
2022/05/20 22:27:14;;;;;;;10.70;6.80;;;;;;;17.58;51.42;98902.96;431079;1273;141654;-50
2022/05/20 22:37:20;;;;;;;8.90;6.90;;;;;;;17.59;51.43;98863.23;430753;1273;142274;-51
2022/05/20 22:47:25;;;;;;;12.00;6.30;;;;;;;17.56;51.44;98822.70;430371;1273;140486;-48
2022/05/20 22:57:38;;;;;;;7.10;6.40;;;;;;;17.49;51.60;98799.41;430964;1272;142738;-51
2022/05/20 23:07:44;;;;;;;8.50;6.40;;;;;;;17.51;51.82;98785.30;430719;1272;141101;-52
2022/05/20 23:17:50;;;;;;;10.80;6.10;;;;;;;17.53;53.03;98816.20;430643;1273;141415;-49
2022/05/20 23:27:56;;;;;;;9.40;6.50;;;;;;;17.39;55.63;98887.21;431095;1273;140779;-49
2022/05/20 23:38:02;;;;;;;10.60;5.70;;;;;;;16.80;59.07;98944.43;430379;1273;141191;-49
2022/05/20 23:48:10;;;;;;;6.10;5.10;;;;;;;16.61;62.19;98847.55;431116;1272;141817;-50
2022/05/20 23:58:16;;;;;;;6.90;4.80;;;;;;;16.49;64.63;98823.13;430333;1273;141730;-50
